createdAt,value
2023-01-13T00:00:42.126Z,62.71
2023-01-13T00:01:43.905Z,62.67
2023-01-13T00:02:48.009Z,62.90
2023-01-13T00:03:50.205Z,62.08
2023-01-13T00:04:52.894Z,62.60
2023-01-13T00:05:54.665Z,62.83
2023-01-13T00:06:57.306Z,62.36
2023-01-13T00:07:59.008Z,62.71
2023-01-13T00:09:01.760Z,63.03
2023-01-13T00:10:03.790Z,62.84
2023-01-13T00:11:06.875Z,62.55
2023-01-13T00:12:08.612Z,62.83
2023-01-13T00:13:11.577Z,62.39
2023-01-13T00:14:13.287Z,62.35
2023-01-13T00:15:16.066Z,62.88
2023-01-13T00:16:18.599Z,63.28
2023-01-13T00:17:21.364Z,62.70
2023-01-13T00:18:24.467Z,63.14
2023-01-13T00:19:27.118Z,63.04
2023-01-13T00:20:29.806Z,62.46
2023-01-13T00:21:31.465Z,62.71
2023-01-13T00:22:34.929Z,63.13
2023-01-13T00:23:36.857Z,62.95
2023-01-13T00:24:39.505Z,62.82
2023-01-13T00:25:41.171Z,62.57
2023-01-13T00:26:43.830Z,62.35
2023-01-13T00:27:46.472Z,62.46
2023-01-13T00:28:48.349Z,62.70
2023-01-13T00:29:50.995Z,62.39
2023-01-13T00:30:52.676Z,62.21
2023-01-13T00:31:55.509Z,62.00
2023-01-13T00:32:57.255Z,62.07
2023-01-13T00:34:02.124Z,62.40
2023-01-13T00:35:04.390Z,62.02
2023-01-13T00:36:08.355Z,62.47
2023-01-13T00:37:12.959Z,61.80
2023-01-13T00:38:15.927Z,62.20
2023-01-13T00:39:17.587Z,62.46
2023-01-13T00:40:20.355Z,62.03
2023-01-13T00:41:23.645Z,62.01
2023-01-13T00:42:43.957Z,62.32
2023-01-13T00:43:46.039Z,62.03
2023-01-13T00:44:48.718Z,61.83
2023-01-13T00:45:51.462Z,62.01
2023-01-13T00:46:54.145Z,62.10
2023-01-13T00:47:55.974Z,61.66
2023-01-13T00:48:58.601Z,61.62
2023-01-13T00:50:01.610Z,61.39
2023-01-13T00:51:05.709Z,61.60
2023-01-13T00:52:07.377Z,61.87
2023-01-13T00:53:10.068Z,61.58
2023-01-13T00:54:11.762Z,61.86
2023-01-13T00:55:14.426Z,61.80
2023-01-13T00:56:19.979Z,61.63
2023-01-13T00:57:27.132Z,61.53
2023-01-13T00:58:28.968Z,61.01
2023-01-13T00:59:31.947Z,61.81
2023-01-13T01:00:33.723Z,61.55
2023-01-13T01:01:36.633Z,61.43
2023-01-13T01:02:38.420Z,61.03
2023-01-13T01:03:41.514Z,61.21
2023-01-13T01:04:43.174Z,61.44
2023-01-13T01:05:47.191Z,61.29
2023-01-13T01:06:49.854Z,61.75
2023-01-13T01:07:51.638Z,61.58
2023-01-13T01:08:55.170Z,61.41
2023-01-13T01:09:56.864Z,61.81
2023-01-13T01:11:04.002Z,61.22
2023-01-13T01:12:05.985Z,61.43
2023-01-13T01:13:08.629Z,61.13
2023-01-13T01:14:12.052Z,61.56
2023-01-13T01:15:14.765Z,61.41
2023-01-13T01:16:17.748Z,61.63
2023-01-13T01:17:20.499Z,61.60
2023-01-13T01:18:22.172Z,61.33
2023-01-13T01:19:24.917Z,61.28
2023-01-13T01:20:26.643Z,61.17
2023-01-13T01:21:30.768Z,61.56
2023-01-13T01:22:33.481Z,61.37
2023-01-13T01:23:36.448Z,61.84
2023-01-13T01:24:39.308Z,61.51
2023-01-13T01:25:40.982Z,61.52
2023-01-13T01:26:43.616Z,62.01
2023-01-13T01:27:45.272Z,62.39
2023-01-13T01:28:48.707Z,62.19
2023-01-13T01:29:50.388Z,62.09
2023-01-13T01:30:54.426Z,61.86
2023-01-13T01:31:58.489Z,61.88
2023-01-13T01:33:03.066Z,61.95
2023-01-13T01:34:05.744Z,62.13
2023-01-13T01:35:07.925Z,61.75
2023-01-13T01:36:15.486Z,61.56
2023-01-13T01:37:18.554Z,62.07
2023-01-13T01:38:23.318Z,61.62
2023-01-13T01:39:26.122Z,62.32
2023-01-13T01:40:27.815Z,62.11
2023-01-13T01:41:32.746Z,61.79
2023-01-13T01:42:53.093Z,61.49
2023-01-13T01:43:59.541Z,61.57
2023-01-13T01:45:03.046Z,61.47
2023-01-13T01:46:06.099Z,61.00
2023-01-13T01:47:08.415Z,61.36
2023-01-13T01:48:12.030Z,60.71
2023-01-13T01:49:16.611Z,60.84
2023-01-13T01:50:19.868Z,60.77
2023-01-13T01:51:21.845Z,60.70
2023-01-13T01:52:29.072Z,60.28
2023-01-13T01:53:32.677Z,60.71
2023-01-13T01:54:40.308Z,60.47
2023-01-13T01:55:42.506Z,59.93
2023-01-13T01:56:45.745Z,59.97
2023-01-13T01:57:50.932Z,60.01
2023-01-13T01:58:55.099Z,60.51
2023-01-13T01:59:58.036Z,60.61
2023-01-13T02:01:01.045Z,60.10
2023-01-13T02:02:03.073Z,60.10
2023-01-13T02:03:07.656Z,60.57
2023-01-13T02:04:12.962Z,60.55
2023-01-13T02:05:15.777Z,60.22
2023-01-13T02:06:17.471Z,60.33
2023-01-13T02:07:22.366Z,60.67
2023-01-13T02:08:25.405Z,60.42
2023-01-13T02:09:28.418Z,60.77
2023-01-13T02:10:30.686Z,60.71
2023-01-13T02:11:52.191Z,60.90
2023-01-13T02:12:55.568Z,60.70
2023-01-13T02:13:57.267Z,60.15
2023-01-13T02:15:03.147Z,60.87
2023-01-13T02:16:09.217Z,60.47
2023-01-13T02:17:22.057Z,60.48
2023-01-13T02:18:38.242Z,60.99
2023-01-13T02:20:24.466Z,61.14
2023-01-13T02:21:51.274Z,60.96
2023-01-13T02:23:31.765Z,60.70
2023-01-13T02:24:56.367Z,61.16
2023-01-13T02:26:10.742Z,61.14
2023-01-13T02:27:45.993Z,60.77
2023-01-13T02:29:18.198Z,61.03
2023-01-13T02:30:47.724Z,60.96
2023-01-13T02:31:51.519Z,61.40
2023-01-13T02:33:03.180Z,60.99
2023-01-13T02:34:07.878Z,61.37
2023-01-13T02:35:15.691Z,60.85
2023-01-13T02:36:23.841Z,60.42
2023-01-13T02:37:29.821Z,60.52
2023-01-13T02:38:35.406Z,61.03
2023-01-13T02:39:41.793Z,61.07
2023-01-13T02:40:47.601Z,61.30
2023-01-13T02:42:12.873Z,61.17
2023-01-13T02:43:36.307Z,61.37
2023-01-13T02:44:43.807Z,60.91
2023-01-13T02:45:51.217Z,60.99
2023-01-13T02:46:56.369Z,61.41
2023-01-13T02:47:59.325Z,61.46
2023-01-13T02:49:05.607Z,61.44
2023-01-13T02:50:12.307Z,61.34
2023-01-13T02:51:15.832Z,61.64
2023-01-13T02:52:23.605Z,61.84
2023-01-13T02:53:28.115Z,61.65
2023-01-13T02:54:31.625Z,62.17
2023-01-13T02:55:35.117Z,62.16
2023-01-13T02:56:40.561Z,61.88
2023-01-13T02:57:43.295Z,61.91
2023-01-13T02:58:49.105Z,62.29
2023-01-13T02:59:54.247Z,62.38
2023-01-13T03:00:58.845Z,62.07
2023-01-13T03:02:01.460Z,62.31
2023-01-13T03:03:04.306Z,62.26
2023-01-13T03:04:13.198Z,62.15
2023-01-13T03:05:16.916Z,61.65
2023-01-13T03:06:32.632Z,62.07
2023-01-13T03:08:01.741Z,62.17
2023-01-13T03:09:08.242Z,62.12
2023-01-13T03:10:12.866Z,61.76
2023-01-13T03:11:16.951Z,62.11
2023-01-13T03:12:21.821Z,62.26
2023-01-13T03:13:41.815Z,61.96
2023-01-13T03:14:48.974Z,62.07
2023-01-13T03:15:56.348Z,62.51
2023-01-13T03:17:13.425Z,61.82
2023-01-13T03:18:23.345Z,62.05
2023-01-13T03:19:35.053Z,61.94
2023-01-13T03:20:41.492Z,62.43
2023-01-13T03:21:49.780Z,62.35
2023-01-13T03:22:56.585Z,62.20
2023-01-13T03:24:02.607Z,62.54
2023-01-13T03:25:09.762Z,62.40
2023-01-13T03:26:15.445Z,62.69
2023-01-13T03:27:22.277Z,62.59
2023-01-13T03:28:28.284Z,62.59
2023-01-13T03:29:36.247Z,62.38
2023-01-13T03:30:41.533Z,62.04
2023-01-13T03:31:49.029Z,62.34
2023-01-13T03:32:55.972Z,61.93
2023-01-13T03:34:01.074Z,61.96
2023-01-13T03:35:09.116Z,62.04
2023-01-13T03:36:14.317Z,61.71
2023-01-13T03:37:19.730Z,62.03
2023-01-13T03:38:26.311Z,62.12
2023-01-13T03:39:31.230Z,61.30
2023-01-13T03:40:35.835Z,61.76
2023-01-13T03:41:41.556Z,61.50
2023-01-13T03:43:07.105Z,61.43
2023-01-13T03:44:25.257Z,61.31
2023-01-13T03:45:27.369Z,61.57
2023-01-13T03:46:32.842Z,61.57
2023-01-13T03:47:39.482Z,61.58
2023-01-13T03:48:43.138Z,61.58
2023-01-13T03:49:51.200Z,61.31
2023-01-13T03:50:55.407Z,60.92
2023-01-13T03:51:59.876Z,61.02
2023-01-13T03:53:04.159Z,61.20
2023-01-13T03:54:10.044Z,60.72
2023-01-13T03:55:14.519Z,61.05
2023-01-13T03:56:21.347Z,60.75
2023-01-13T03:57:26.937Z,61.29
2023-01-13T03:58:31.582Z,61.32
2023-01-13T03:59:36.494Z,61.42
2023-01-13T04:00:43.537Z,60.69
2023-01-13T04:01:51.021Z,61.25
2023-01-13T04:02:55.972Z,60.87
2023-01-13T04:04:01.943Z,61.36
2023-01-13T04:05:06.994Z,60.89
2023-01-13T04:06:16.939Z,61.05
2023-01-13T04:07:28.220Z,60.82
2023-01-13T04:08:31.094Z,61.07
2023-01-13T04:09:40.090Z,60.88
2023-01-13T04:10:47.151Z,60.68
2023-01-13T04:11:52.272Z,60.73
2023-01-13T04:13:01.440Z,60.68
2023-01-13T04:14:03.846Z,60.89
2023-01-13T04:15:07.545Z,60.94
2023-01-13T04:16:11.209Z,60.37
2023-01-13T04:17:14.069Z,60.78
2023-01-13T04:18:17.412Z,60.76
2023-01-13T04:19:21.436Z,60.82
2023-01-13T04:20:23.151Z,60.40
2023-01-13T04:21:26.146Z,60.78
2023-01-13T04:22:27.916Z,61.00
2023-01-13T04:23:30.606Z,60.99
2023-01-13T04:24:32.308Z,60.45
2023-01-13T04:25:35.047Z,60.62
2023-01-13T04:26:36.743Z,61.11
2023-01-13T04:27:39.507Z,61.31
2023-01-13T04:28:41.267Z,61.09
2023-01-13T04:29:43.962Z,61.32
2023-01-13T04:30:46.053Z,60.77
2023-01-13T04:31:48.819Z,60.80
2023-01-13T04:32:50.509Z,60.35
2023-01-13T04:33:53.222Z,60.34
2023-01-13T04:34:56.275Z,60.13
2023-01-13T04:35:58.910Z,60.69
2023-01-13T04:37:01.632Z,60.64
2023-01-13T04:38:04.454Z,60.70
2023-01-13T04:39:07.280Z,60.11
2023-01-13T04:40:10.020Z,60.50
2023-01-13T04:41:12.707Z,60.34
2023-01-13T04:42:14.369Z,60.47
2023-01-13T04:43:17.708Z,60.46
2023-01-13T04:44:19.476Z,60.65
2023-01-13T04:45:22.157Z,60.24
2023-01-13T04:46:23.929Z,60.21
2023-01-13T04:47:26.684Z,60.46
2023-01-13T04:48:29.440Z,60.14
2023-01-13T04:49:31.262Z,60.30
2023-01-13T04:50:35.353Z,60.03
2023-01-13T04:51:37.041Z,60.19
2023-01-13T04:52:39.853Z,60.32
2023-01-13T04:53:41.512Z,60.06
2023-01-13T04:54:44.214Z,60.30
2023-01-13T04:55:47.851Z,60.32
2023-01-13T04:56:50.524Z,60.33
2023-01-13T04:57:52.715Z,60.08
2023-01-13T04:58:55.441Z,59.88
2023-01-13T04:59:57.136Z,59.93
2023-01-13T05:00:59.800Z,59.94
2023-01-13T05:02:01.759Z,60.02
2023-01-13T05:03:04.984Z,60.61
2023-01-13T05:04:07.405Z,60.53
2023-01-13T05:05:10.943Z,60.01
2023-01-13T05:06:14.051Z,60.11
2023-01-13T05:07:18.410Z,59.99
2023-01-13T05:08:20.207Z,60.34
2023-01-13T05:09:22.924Z,60.14
2023-01-13T05:10:24.974Z,60.32
2023-01-13T05:11:45.362Z,59.92
2023-01-13T05:13:05.718Z,59.80
2023-01-13T05:14:26.164Z,60.29
2023-01-13T05:15:46.482Z,60.06
2023-01-13T05:17:03.548Z,60.69
2023-01-13T05:18:05.549Z,61.01
2023-01-13T05:19:08.229Z,60.74
2023-01-13T05:20:11.517Z,60.77
2023-01-13T05:21:29.466Z,61.25
2023-01-13T05:22:49.543Z,61.38
2023-01-13T05:24:09.818Z,61.86
2023-01-13T05:25:27.029Z,61.43
2023-01-13T05:26:29.729Z,61.70
2023-01-13T05:27:32.036Z,62.31
2023-01-13T05:28:35.349Z,62.31
2023-01-13T05:29:37.110Z,62.01
2023-01-13T05:30:42.337Z,62.45
2023-01-13T05:31:44.010Z,61.75
2023-01-13T05:32:46.720Z,61.88
2023-01-13T05:33:49.432Z,62.25
2023-01-13T05:34:51.237Z,62.39
2023-01-13T05:35:54.065Z,62.47
2023-01-13T05:36:57.088Z,62.28
2023-01-13T05:37:59.724Z,62.90
2023-01-13T05:39:01.463Z,63.53
2023-01-13T05:40:37.256Z,62.94
2023-01-13T05:41:57.623Z,63.10
2023-01-13T05:43:27.927Z,63.27
2023-01-13T05:44:30.708Z,63.03
2023-01-13T05:45:32.476Z,63.53
2023-01-13T05:46:35.290Z,63.32
2023-01-13T05:47:37.245Z,63.63
2023-01-13T05:48:41.291Z,63.42
2023-01-13T05:49:43.058Z,63.94
2023-01-13T05:50:46.608Z,63.71
2023-01-13T05:51:48.265Z,63.67
2023-01-13T05:52:52.442Z,64.00
2023-01-13T05:53:54.170Z,64.26
2023-01-13T05:54:56.906Z,63.70
2023-01-13T05:55:59.741Z,63.97
2023-01-13T05:57:01.466Z,63.62
2023-01-13T05:58:04.190Z,63.89
2023-01-13T05:59:07.182Z,63.76
2023-01-13T06:00:10.068Z,64.16
2023-01-13T06:01:15.726Z,64.91
2023-01-13T06:02:17.397Z,65.09
2023-01-13T06:03:21.068Z,65.61
2023-01-13T06:04:22.801Z,65.38
2023-01-13T06:05:25.677Z,65.17
2023-01-13T06:06:28.374Z,64.17
2023-01-13T06:07:30.060Z,64.14
2023-01-13T06:08:34.119Z,64.04
2023-01-13T06:09:35.866Z,63.96
2023-01-13T06:10:38.541Z,64.12
2023-01-13T06:11:40.227Z,64.15
2023-01-13T06:12:43.922Z,64.94
2023-01-13T06:13:46.607Z,65.29
2023-01-13T06:14:48.363Z,65.68
2023-01-13T06:15:51.089Z,65.85
2023-01-13T06:16:52.821Z,66.32
2023-01-13T06:17:56.522Z,65.66
2023-01-13T06:18:58.206Z,66.01
2023-01-13T06:20:01.033Z,66.01
2023-01-13T06:21:04.822Z,66.25
2023-01-13T06:22:11.543Z,65.70
2023-01-13T06:23:14.242Z,65.87
2023-01-13T06:24:17.306Z,66.16
2023-01-13T06:25:25.217Z,66.65
2023-01-13T06:26:28.314Z,67.05
2023-01-13T06:27:31.597Z,67.04
2023-01-13T06:28:33.399Z,67.23
2023-01-13T06:29:36.137Z,67.25
2023-01-13T06:30:40.988Z,67.00
2023-01-13T06:31:43.004Z,67.53
2023-01-13T06:32:47.636Z,67.59
2023-01-13T06:33:51.084Z,67.00
2023-01-13T06:34:56.848Z,67.09
2023-01-13T06:36:01.915Z,66.76
2023-01-13T06:37:05.221Z,66.54
2023-01-13T06:38:09.570Z,66.32
2023-01-13T06:39:14.272Z,65.85
2023-01-13T06:40:17.818Z,65.77
2023-01-13T06:41:41.841Z,65.58
2023-01-13T06:43:01.936Z,65.25
2023-01-13T06:44:03.670Z,64.95
2023-01-13T06:45:07.133Z,65.00
2023-01-13T06:46:10.050Z,65.07
2023-01-13T06:47:11.886Z,64.58
2023-01-13T06:48:14.825Z,64.72
2023-01-13T06:49:16.594Z,64.58
2023-01-13T06:50:20.635Z,64.26
2023-01-13T06:51:23.355Z,64.47
2023-01-13T06:52:25.152Z,64.74
2023-01-13T06:53:27.822Z,64.70
2023-01-13T06:54:29.630Z,64.81
2023-01-13T06:55:33.672Z,65.09
2023-01-13T06:56:35.412Z,65.46
2023-01-13T06:57:48.892Z,65.89
2023-01-13T06:58:51.658Z,65.95
2023-01-13T06:59:53.558Z,65.68
2023-01-13T07:01:01.259Z,65.71
2023-01-13T07:02:03.295Z,65.71
2023-01-13T07:03:07.834Z,65.84
2023-01-13T07:04:09.681Z,65.40
2023-01-13T07:05:12.386Z,65.34
2023-01-13T07:06:15.102Z,65.29
2023-01-13T07:07:16.782Z,64.99
2023-01-13T07:08:19.581Z,64.88
2023-01-13T07:09:21.283Z,64.77
2023-01-13T07:10:24.063Z,64.70
2023-01-13T07:11:27.108Z,64.73
2023-01-13T07:12:29.972Z,64.46
2023-01-13T07:13:49.955Z,64.79
2023-01-13T07:15:10.370Z,64.95
2023-01-13T07:16:13.209Z,64.62
2023-01-13T07:17:15.073Z,64.55
2023-01-13T07:18:17.782Z,64.64
2023-01-13T07:19:23.613Z,64.46
2023-01-13T07:20:26.356Z,64.47
2023-01-13T07:21:29.053Z,64.27
2023-01-13T07:22:31.714Z,64.37
2023-01-13T07:23:35.818Z,64.01
2023-01-13T07:24:38.674Z,63.83
2023-01-13T07:25:40.411Z,63.83
2023-01-13T07:26:44.530Z,63.82
2023-01-13T07:27:47.185Z,63.33
2023-01-13T07:28:49.913Z,63.34
2023-01-13T07:29:51.665Z,63.02
2023-01-13T07:30:54.377Z,63.02
2023-01-13T07:31:57.215Z,62.69
2023-01-13T07:32:59.949Z,62.73
2023-01-13T07:34:04.926Z,62.48
2023-01-13T07:35:07.704Z,62.40
2023-01-13T07:36:10.753Z,62.31
2023-01-13T07:37:12.433Z,62.37
2023-01-13T07:38:15.375Z,62.11
2023-01-13T07:39:18.246Z,62.22
2023-01-13T07:40:21.293Z,62.34
2023-01-13T07:41:41.713Z,62.30
2023-01-13T07:43:03.539Z,62.42
2023-01-13T07:44:06.226Z,62.21
2023-01-13T07:45:12.222Z,62.48
2023-01-13T07:46:15.220Z,62.30
2023-01-13T07:47:17.942Z,62.45
2023-01-13T07:48:19.758Z,62.87
2023-01-13T07:49:22.464Z,62.30
2023-01-13T07:50:24.381Z,62.40
2023-01-13T07:51:27.032Z,62.63
2023-01-13T07:52:28.728Z,62.55
2023-01-13T07:53:31.689Z,62.56
2023-01-13T07:54:40.773Z,62.74
2023-01-13T07:55:43.580Z,62.84
2023-01-13T07:56:46.262Z,62.83
2023-01-13T07:57:49.553Z,62.74
2023-01-13T07:58:52.996Z,63.14
2023-01-13T07:59:55.763Z,62.98
2023-01-13T08:00:57.964Z,63.14
2023-01-13T08:02:01.092Z,63.67
2023-01-13T08:03:03.963Z,63.49
2023-01-13T08:04:06.808Z,63.45
2023-01-13T08:05:09.458Z,63.65
2023-01-13T08:06:13.331Z,63.66
2023-01-13T08:07:15.048Z,63.45
2023-01-13T08:08:17.960Z,64.02
2023-01-13T08:09:19.725Z,63.74
2023-01-13T08:10:22.486Z,63.77
2023-01-13T08:11:24.193Z,63.91
2023-01-13T08:12:52.181Z,63.81
2023-01-13T08:14:00.309Z,63.65
2023-01-13T08:15:02.052Z,63.97
2023-01-13T08:16:06.627Z,63.97
2023-01-13T08:17:09.739Z,63.83
2023-01-13T08:18:12.461Z,63.68
2023-01-13T08:19:15.326Z,63.62
2023-01-13T08:20:17.260Z,63.47
2023-01-13T08:21:19.958Z,63.19
2023-01-13T08:22:22.760Z,62.92
2023-01-13T08:23:25.503Z,62.55
2023-01-13T08:24:27.209Z,62.14
2023-01-13T08:25:30.891Z,61.67
2023-01-13T08:26:33.633Z,61.41
2023-01-13T08:27:35.446Z,61.00
2023-01-13T08:28:40.409Z,60.68
2023-01-13T08:29:43.475Z,60.45
2023-01-13T08:30:46.262Z,60.40
2023-01-13T08:31:49.107Z,60.10
2023-01-13T08:32:50.841Z,60.07
2023-01-13T08:33:53.580Z,60.02
2023-01-13T08:34:55.726Z,59.78
2023-01-13T08:35:58.799Z,59.38
2023-01-13T08:37:01.601Z,59.81
2023-01-13T08:38:03.374Z,59.64
2023-01-13T08:39:06.142Z,59.92
2023-01-13T08:40:09.947Z,60.03
2023-01-13T08:41:13.951Z,60.09
2023-01-13T08:42:15.797Z,60.38
2023-01-13T08:43:18.601Z,60.31
2023-01-13T08:44:24.288Z,60.57
2023-01-13T08:45:28.413Z,60.44
2023-01-13T08:46:34.104Z,60.82
2023-01-13T08:47:36.083Z,61.19
2023-01-13T08:48:38.754Z,61.18
2023-01-13T08:49:41.648Z,60.89
2023-01-13T08:50:44.444Z,61.15
2023-01-13T08:51:46.975Z,60.83
2023-01-13T08:52:49.663Z,60.91
2023-01-13T08:53:52.372Z,60.45
2023-01-13T08:54:54.170Z,60.94
2023-01-13T08:55:57.189Z,60.89
2023-01-13T08:57:00.241Z,60.32
2023-01-13T08:58:14.693Z,60.76
2023-01-13T08:59:20.069Z,61.20
2023-01-13T09:00:23.457Z,60.78
2023-01-13T09:01:27.767Z,60.67
2023-01-13T09:02:30.773Z,60.54
2023-01-13T09:03:34.581Z,60.46
2023-01-13T09:04:37.551Z,60.46
2023-01-13T09:05:40.428Z,60.62
2023-01-13T09:06:42.137Z,60.16
2023-01-13T09:07:45.084Z,60.51
2023-01-13T09:08:47.573Z,60.20
2023-01-13T09:09:51.331Z,60.17
2023-01-13T09:10:57.067Z,59.96
2023-01-13T09:12:28.880Z,60.16
2023-01-13T09:13:30.612Z,59.92
2023-01-13T09:14:35.074Z,59.86
2023-01-13T09:15:37.169Z,59.81
2023-01-13T09:16:41.312Z,59.62
2023-01-13T09:17:44.050Z,59.62
2023-01-13T09:18:45.855Z,59.51
2023-01-13T09:19:48.763Z,59.03
2023-01-13T09:20:50.509Z,59.06
2023-01-13T09:21:53.706Z,58.50
2023-01-13T09:22:56.510Z,58.76
2023-01-13T09:23:58.410Z,58.27
2023-01-13T09:25:01.205Z,58.17
2023-01-13T09:26:03.025Z,57.94
2023-01-13T09:27:05.911Z,57.81
2023-01-13T09:28:09.088Z,57.63
2023-01-13T09:29:10.866Z,57.24
2023-01-13T09:30:14.224Z,57.13
2023-01-13T09:31:15.948Z,56.84
2023-01-13T09:32:19.998Z,56.44
2023-01-13T09:33:40.114Z,56.00
2023-01-13T09:35:00.379Z,56.08
2023-01-13T09:36:03.192Z,55.73
2023-01-13T09:37:06.757Z,56.17
2023-01-13T09:38:09.525Z,56.22
2023-01-13T09:39:11.307Z,55.86
2023-01-13T09:40:18.168Z,56.04
2023-01-13T09:41:39.543Z,56.28
2023-01-13T09:43:03.980Z,56.48
2023-01-13T09:44:09.825Z,56.15
2023-01-13T09:45:15.642Z,56.54
2023-01-13T09:46:34.705Z,56.20
2023-01-13T09:47:43.487Z,56.28
2023-01-13T09:48:52.100Z,56.47
2023-01-13T09:49:55.695Z,56.24
2023-01-13T09:51:03.545Z,56.30
2023-01-13T09:52:10.021Z,56.49
2023-01-13T09:53:16.610Z,56.08
2023-01-13T09:54:25.892Z,55.87
2023-01-13T09:55:32.004Z,55.59
2023-01-13T09:56:34.690Z,56.14
2023-01-13T09:57:39.898Z,55.69
2023-01-13T09:58:43.132Z,55.77
2023-01-13T09:59:46.507Z,55.07
2023-01-13T10:00:59.257Z,55.14
2023-01-13T10:02:08.879Z,54.70
2023-01-13T10:03:22.593Z,55.19
2023-01-13T10:04:25.347Z,54.90
2023-01-13T10:05:32.534Z,54.31
2023-01-13T10:06:36.923Z,54.41
2023-01-13T10:07:44.107Z,54.11
2023-01-13T10:08:48.559Z,53.18
2023-01-13T10:09:53.905Z,53.51
2023-01-13T10:11:01.927Z,53.38
2023-01-13T10:12:24.222Z,53.74
2023-01-13T10:13:28.408Z,53.31
2023-01-13T10:14:36.211Z,52.80
2023-01-13T10:15:38.004Z,52.58
2023-01-13T10:16:45.527Z,52.38
2023-01-13T10:17:50.991Z,52.24
2023-01-13T10:19:04.779Z,52.17
2023-01-13T10:20:16.233Z,52.41
2023-01-13T10:21:32.542Z,52.26
2023-01-13T10:22:46.982Z,52.19
2023-01-13T10:23:56.034Z,52.53
2023-01-13T10:25:20.300Z,51.87
2023-01-13T10:26:35.230Z,51.47
2023-01-13T10:27:38.229Z,51.86
2023-01-13T10:28:40.941Z,51.40
2023-01-13T10:29:42.724Z,51.09
2023-01-13T10:30:47.019Z,51.06
2023-01-13T10:31:48.723Z,51.39
2023-01-13T10:32:58.155Z,51.12
2023-01-13T10:34:04.094Z,50.77
2023-01-13T10:35:06.223Z,51.29
2023-01-13T10:36:14.873Z,51.14
2023-01-13T10:37:21.795Z,50.57
2023-01-13T10:38:26.318Z,50.95
2023-01-13T10:39:30.149Z,50.67
2023-01-13T10:40:32.927Z,50.68
2023-01-13T10:41:36.231Z,50.39
2023-01-13T10:42:37.899Z,50.36
2023-01-13T10:43:41.808Z,49.51
2023-01-13T10:44:48.585Z,49.39
2023-01-13T10:45:59.574Z,49.80
2023-01-13T10:47:02.250Z,49.54
2023-01-13T10:48:08.317Z,49.38
2023-01-13T10:49:36.218Z,48.80
2023-01-13T10:50:38.732Z,49.04
2023-01-13T10:51:45.167Z,48.96
2023-01-13T10:53:18.712Z,48.66
2023-01-13T10:54:23.771Z,48.98
2023-01-13T10:55:27.959Z,48.76
2023-01-13T10:56:32.466Z,48.21
2023-01-13T10:57:37.567Z,48.14
2023-01-13T10:58:39.282Z,48.14
2023-01-13T10:59:41.975Z,47.96
2023-01-13T11:00:43.817Z,48.10
2023-01-13T11:01:59.000Z,47.99
2023-01-13T11:03:19.072Z,47.61
2023-01-13T11:04:38.236Z,47.93
2023-01-13T11:05:40.218Z,47.83
2023-01-13T11:06:46.691Z,47.86
2023-01-13T11:07:52.446Z,48.18
2023-01-13T11:08:58.208Z,48.75
2023-01-13T11:10:17.877Z,48.45
2023-01-13T11:11:30.403Z,48.71
2023-01-13T11:12:35.189Z,48.40
2023-01-13T11:14:01.266Z,49.00
2023-01-13T11:15:06.000Z,48.63
2023-01-13T11:16:12.164Z,48.74
2023-01-13T11:17:29.062Z,48.43
2023-01-13T11:18:40.854Z,48.73
2023-01-13T11:19:48.123Z,48.30
2023-01-13T11:20:52.430Z,48.45
2023-01-13T11:21:58.143Z,48.75
2023-01-13T11:23:04.715Z,49.15
2023-01-13T11:24:13.043Z,48.71
2023-01-13T11:25:19.472Z,48.99
2023-01-13T11:26:27.213Z,49.11
2023-01-13T11:27:38.525Z,49.33
2023-01-13T11:28:47.604Z,49.51
2023-01-13T11:30:00.172Z,49.87
2023-01-13T11:31:06.755Z,49.74
2023-01-13T11:32:11.976Z,49.55
2023-01-13T11:33:34.236Z,49.30
2023-01-13T11:34:38.513Z,49.75
2023-01-13T11:35:45.822Z,49.27
2023-01-13T11:36:51.821Z,49.35
2023-01-13T11:37:56.761Z,49.10
2023-01-13T11:39:03.204Z,48.53
2023-01-13T11:40:12.618Z,48.62
2023-01-13T11:41:22.424Z,47.59
2023-01-13T11:42:26.948Z,47.49
2023-01-13T11:43:32.761Z,47.51
2023-01-13T11:44:40.090Z,47.74
2023-01-13T11:45:47.589Z,47.39
2023-01-13T11:46:51.464Z,45.91
2023-01-13T11:47:57.251Z,45.92
2023-01-13T11:49:01.341Z,45.12
2023-01-13T11:50:04.361Z,45.10
2023-01-13T11:51:18.489Z,45.07
2023-01-13T11:52:23.834Z,45.30
2023-01-13T11:53:35.753Z,45.38
2023-01-13T11:55:05.924Z,44.67
2023-01-13T11:56:19.634Z,45.06
2023-01-13T11:57:53.340Z,45.26
2023-01-13T11:59:09.749Z,44.68
2023-01-13T12:00:47.999Z,45.34
2023-01-13T12:02:01.994Z,45.29
2023-01-13T12:03:20.007Z,44.79
2023-01-13T12:04:27.400Z,44.30
2023-01-13T12:05:36.595Z,44.58
2023-01-13T12:06:40.827Z,44.70
2023-01-13T12:07:50.235Z,44.80
2023-01-13T12:09:17.699Z,44.96
2023-01-13T12:10:32.150Z,44.76
2023-01-13T12:11:58.274Z,44.75
2023-01-13T12:13:07.794Z,44.99
2023-01-13T12:14:19.321Z,44.29
2023-01-13T12:15:36.603Z,43.63
2023-01-13T12:16:46.624Z,43.93
2023-01-13T12:17:56.773Z,43.91
2023-01-13T12:19:20.128Z,43.83
2023-01-13T12:20:26.877Z,44.39
2023-01-13T12:21:31.692Z,44.10
2023-01-13T12:22:36.972Z,44.77
2023-01-13T12:23:43.658Z,44.76
2023-01-13T12:24:50.343Z,44.57
2023-01-13T12:25:56.303Z,44.87
2023-01-13T12:27:01.876Z,44.82
2023-01-13T12:28:07.735Z,44.26
2023-01-13T12:29:14.210Z,44.53
2023-01-13T12:30:24.211Z,44.90
2023-01-13T12:31:28.270Z,44.80
2023-01-13T12:32:34.690Z,44.86
2023-01-13T12:33:45.702Z,44.70
2023-01-13T12:35:03.695Z,45.09
2023-01-13T12:36:10.517Z,44.89
2023-01-13T12:37:20.795Z,45.16
2023-01-13T12:38:34.327Z,44.31
2023-01-13T12:39:44.491Z,44.13
2023-01-13T12:40:55.345Z,43.94
2023-01-13T12:42:18.927Z,43.49
2023-01-13T12:43:40.427Z,44.07
2023-01-13T12:45:08.084Z,43.21
2023-01-13T12:46:36.229Z,43.39
2023-01-13T12:47:41.363Z,43.48
2023-01-13T12:49:00.269Z,43.71
2023-01-13T12:50:36.413Z,43.40
2023-01-13T12:52:07.921Z,42.91
2023-01-13T12:53:38.515Z,44.68
2023-01-13T12:55:15.015Z,43.05
2023-01-13T12:56:23.193Z,43.00
2023-01-13T12:57:27.212Z,43.04
2023-01-13T12:58:30.302Z,43.04
2023-01-13T12:59:35.704Z,42.97
2023-01-13T13:00:55.182Z,42.89
2023-01-13T13:02:26.430Z,42.99
2023-01-13T13:03:32.073Z,43.33
2023-01-13T13:04:43.154Z,43.15
2023-01-13T13:05:49.964Z,42.49
2023-01-13T13:06:55.751Z,42.53
2023-01-13T13:08:05.806Z,42.78
2023-01-13T13:09:19.557Z,43.06
2023-01-13T13:10:28.103Z,42.69
2023-01-13T13:12:03.143Z,42.46
2023-01-13T13:13:20.589Z,42.63
2023-01-13T13:15:03.130Z,42.32
2023-01-13T13:17:01.180Z,42.83
2023-01-13T13:18:21.489Z,42.94
2023-01-13T13:19:49.197Z,42.58
2023-01-13T13:21:10.061Z,42.52
2023-01-13T13:22:37.042Z,42.70
2023-01-13T13:23:47.821Z,42.46
2023-01-13T13:25:28.881Z,42.53
2023-01-13T13:26:45.744Z,42.79
2023-01-13T13:27:53.416Z,42.88
2023-01-13T13:29:07.345Z,42.81
2023-01-13T13:30:14.629Z,42.98
2023-01-13T13:31:24.257Z,42.43
2023-01-13T13:32:56.220Z,42.61
2023-01-13T13:34:13.387Z,42.17
2023-01-13T13:35:24.972Z,42.70
2023-01-13T13:36:43.021Z,42.38
2023-01-13T13:38:09.523Z,42.25
2023-01-13T13:39:39.779Z,42.32
2023-01-13T13:41:04.654Z,42.60
2023-01-13T13:42:31.734Z,42.35
2023-01-13T13:43:59.146Z,42.03
2023-01-13T13:45:20.643Z,41.14
2023-01-13T13:46:46.641Z,41.33
2023-01-13T13:47:49.333Z,40.92
2023-01-13T13:48:52.734Z,40.58
2023-01-13T13:49:56.387Z,39.95
2023-01-13T13:51:02.287Z,40.19
2023-01-13T13:52:10.910Z,39.80
2023-01-13T13:53:13.759Z,40.57
2023-01-13T13:54:18.753Z,40.41
2023-01-13T13:55:23.668Z,40.04
2023-01-13T13:56:27.953Z,40.25
2023-01-13T13:57:36.961Z,39.97
2023-01-13T13:58:41.262Z,39.44
2023-01-13T13:59:43.197Z,38.60
2023-01-13T14:00:48.726Z,37.98
2023-01-13T14:02:00.909Z,37.06
2023-01-13T14:03:06.651Z,36.35
2023-01-13T14:04:15.751Z,36.14
2023-01-13T14:05:20.771Z,35.54
2023-01-13T14:06:24.618Z,35.11
2023-01-13T14:07:28.132Z,35.39
2023-01-13T14:08:32.684Z,34.97
2023-01-13T14:09:41.738Z,34.81
2023-01-13T14:10:46.312Z,34.42
2023-01-13T14:12:02.505Z,34.37
2023-01-13T14:13:15.535Z,33.97
2023-01-13T14:14:21.012Z,34.11
2023-01-13T14:15:35.264Z,34.30
2023-01-13T14:16:38.501Z,34.95
2023-01-13T14:17:41.156Z,35.81
2023-01-13T14:18:46.437Z,36.50
2023-01-13T14:19:52.242Z,37.25
2023-01-13T14:20:56.399Z,38.27
2023-01-13T14:22:06.185Z,38.59
2023-01-13T14:23:16.231Z,39.64